createdAt,value
2023-11-05T00:01:34.063Z,100.00
2023-11-05T00:07:36.290Z,100.00
2023-11-05T00:13:38.401Z,100.00
2023-11-05T00:19:40.353Z,100.00
2023-11-05T00:25:42.381Z,100.00
2023-11-05T00:31:44.688Z,100.00
2023-11-05T00:37:46.675Z,100.00
2023-11-05T00:43:48.771Z,100.00
2023-11-05T00:49:50.818Z,100.00
2023-11-05T00:55:54.165Z,100.00
2023-11-05T01:01:58.476Z,100.00
2023-11-05T01:08:00.459Z,100.00
2023-11-05T01:14:02.427Z,100.00
2023-11-05T01:20:07.712Z,100.00
2023-11-05T01:26:09.664Z,100.00
2023-11-05T01:32:11.681Z,100.00
2023-11-05T01:38:13.725Z,100.00
2023-11-05T01:44:15.782Z,100.00
2023-11-05T01:50:18.374Z,100.00
2023-11-05T01:56:23.989Z,100.00
2023-11-05T02:02:26.689Z,100.00
2023-11-05T02:08:28.725Z,100.00
2023-11-05T02:14:30.721Z,100.00
2023-11-05T02:20:32.692Z,100.00
2023-11-05T02:26:34.664Z,100.00
2023-11-05T02:32:36.666Z,100.00
2023-11-05T02:38:39.675Z,100.00
2023-11-05T02:44:42.802Z,100.00
2023-11-05T02:50:44.808Z,100.00
2023-11-05T02:56:46.767Z,100.00
2023-11-05T03:02:48.776Z,100.00
2023-11-05T03:08:50.851Z,100.00
2023-11-05T03:14:52.944Z,100.00
2023-11-05T03:20:54.875Z,100.00
2023-11-05T03:26:57.138Z,100.00
2023-11-05T03:32:59.206Z,100.00
2023-11-05T03:39:01.464Z,100.00
2023-11-05T03:45:03.657Z,100.00
2023-11-05T03:51:05.954Z,100.00
2023-11-05T03:57:07.879Z,100.00
2023-11-05T04:03:09.880Z,100.00
2023-11-05T04:09:13.505Z,100.00
2023-11-05T04:15:15.515Z,100.00
2023-11-05T04:21:17.583Z,100.00
2023-11-05T04:27:20.294Z,100.00
2023-11-05T04:33:22.306Z,100.00
2023-11-05T04:39:24.330Z,100.00
2023-11-05T04:45:26.278Z,100.00
2023-11-05T04:51:30.406Z,100.00
2023-11-05T04:57:32.738Z,100.00
2023-11-05T05:03:35.150Z,100.00
2023-11-05T05:09:38.514Z,100.00
2023-11-05T05:15:40.961Z,100.00
2023-11-05T05:21:47.139Z,100.00
2023-11-05T05:27:49.200Z,100.00
2023-11-05T05:33:51.127Z,100.00
2023-11-05T05:39:53.401Z,100.00
2023-11-05T05:45:55.317Z,100.00
2023-11-05T05:51:57.291Z,100.00
2023-11-05T05:58:00.182Z,100.00
2023-11-05T06:04:02.214Z,100.00
2023-11-05T06:10:06.991Z,100.00
2023-11-05T06:16:09.733Z,100.00
2023-11-05T06:22:12.543Z,100.00
2023-11-05T06:28:15.725Z,100.00
2023-11-05T06:34:18.967Z,100.00
2023-11-05T06:40:21.099Z,100.00
2023-11-05T06:46:23.159Z,100.00
2023-11-05T06:52:26.134Z,100.00
2023-11-05T06:58:28.119Z,100.00
2023-11-05T07:04:30.981Z,100.00
2023-11-05T07:10:34.240Z,100.00
2023-11-05T07:16:36.994Z,100.00
2023-11-05T07:22:40.832Z,100.00
2023-11-05T07:28:45.367Z,100.00
2023-11-05T07:34:48.922Z,100.00
2023-11-05T07:40:50.904Z,100.00
2023-11-05T07:46:52.902Z,100.00
2023-11-05T07:52:54.859Z,100.00
2023-11-05T07:58:57.069Z,100.00
2023-11-05T08:04:59.581Z,100.00
2023-11-05T08:11:01.925Z,100.00
2023-11-05T08:17:04.648Z,100.00
2023-11-05T08:23:06.719Z,100.00
2023-11-05T08:29:08.790Z,100.00
2023-11-05T08:35:12.814Z,100.00
2023-11-05T08:41:15.656Z,100.00
2023-11-05T08:47:17.643Z,100.00
2023-11-05T08:53:22.728Z,100.00
2023-11-05T08:59:24.904Z,100.00
2023-11-05T09:05:27.899Z,100.00
2023-11-05T09:11:29.858Z,100.00
2023-11-05T09:17:31.814Z,100.00
2023-11-05T09:23:33.841Z,100.00
2023-11-05T09:29:35.788Z,100.00
2023-11-05T09:35:37.746Z,100.00
2023-11-05T09:41:39.911Z,99.54
2023-11-05T09:47:42.415Z,100.00
2023-11-05T09:53:44.684Z,100.00
2023-11-05T09:59:48.401Z,100.00
2023-11-05T10:05:50.382Z,100.00
2023-11-05T10:11:52.341Z,100.00
2023-11-05T10:17:55.542Z,100.00
2023-11-05T10:23:57.977Z,100.00
2023-11-05T10:30:00.672Z,100.00
2023-11-05T10:36:02.637Z,100.00
2023-11-05T10:42:05.450Z,99.57
2023-11-05T10:48:09.508Z,98.07
2023-11-05T10:54:11.542Z,95.84
2023-11-05T11:00:28.435Z,94.71
2023-11-05T11:06:30.396Z,94.39
2023-11-05T11:12:34.246Z,93.64
2023-11-05T11:18:39.481Z,92.23
2023-11-05T11:24:41.927Z,89.07
2023-11-05T11:30:44.052Z,88.98
2023-11-05T11:36:46.044Z,89.66
2023-11-05T11:42:48.241Z,89.32
2023-11-05T11:48:50.366Z,88.61
2023-11-05T11:54:52.777Z,88.74
2023-11-05T12:00:58.993Z,92.82
2023-11-05T12:07:06.402Z,92.38
2023-11-05T12:13:08.667Z,91.97
2023-11-05T12:19:11.894Z,89.25
2023-11-05T12:25:14.734Z,89.63
2023-11-05T12:31:17.010Z,88.29
2023-11-05T12:37:20.535Z,88.63
2023-11-05T12:43:24.792Z,88.10
2023-11-05T12:49:27.033Z,88.85
2023-11-05T12:55:30.591Z,86.57
2023-11-05T13:01:32.683Z,87.19
2023-11-05T13:07:35.324Z,88.36
2023-11-05T13:13:37.381Z,88.86
2023-11-05T13:19:39.383Z,89.12
2023-11-05T13:25:42.589Z,88.76
2023-11-05T13:31:44.633Z,92.63
2023-11-05T13:37:47.343Z,95.16
2023-11-05T13:43:50.276Z,95.60
2023-11-05T13:49:52.266Z,97.07
2023-11-05T13:55:54.327Z,99.27
2023-11-05T14:01:56.366Z,99.86
2023-11-05T14:07:58.428Z,98.05
2023-11-05T14:14:00.594Z,99.57
2023-11-05T14:20:06.774Z,98.47
2023-11-05T14:26:09.124Z,97.70
2023-11-05T14:32:12.034Z,98.24
2023-11-05T14:38:13.982Z,97.24
2023-11-05T14:44:16.292Z,96.75
2023-11-05T14:50:18.256Z,98.78
2023-11-05T14:56:24.512Z,100.00
2023-11-05T15:02:26.526Z,100.00
2023-11-05T15:08:28.484Z,100.00
2023-11-05T15:14:32.066Z,100.00
2023-11-05T15:20:34.039Z,100.00
2023-11-05T15:26:35.980Z,100.00
2023-11-05T15:32:38.730Z,100.00
2023-11-05T15:38:40.981Z,99.97
2023-11-05T15:44:42.914Z,99.23
2023-11-05T15:56:49.824Z,99.22
2023-11-05T16:02:52.493Z,99.93
2023-11-05T16:08:56.213Z,99.54
2023-11-05T16:14:58.345Z,100.00
2023-11-05T16:21:00.604Z,100.00
2023-11-05T16:27:03.187Z,100.00
2023-11-05T16:33:05.251Z,100.00
2023-11-05T16:39:07.319Z,100.00
2023-11-05T16:45:10.064Z,100.00
2023-11-05T16:51:13.246Z,100.00
2023-11-05T16:57:15.661Z,100.00
2023-11-05T17:03:18.268Z,100.00
2023-11-05T17:09:20.307Z,100.00
2023-11-05T17:15:22.306Z,100.00
2023-11-05T17:21:24.698Z,100.00
2023-11-05T17:27:26.769Z,99.61
2023-11-05T17:33:29.806Z,98.56
2023-11-05T17:39:33.325Z,98.28
2023-11-05T17:45:41.104Z,99.96
2023-11-05T17:51:43.097Z,100.00
2023-11-05T17:57:45.031Z,100.00
2023-11-05T18:03:48.122Z,100.00
2023-11-05T18:09:50.209Z,100.00
2023-11-05T18:15:52.154Z,100.00
2023-11-05T18:21:54.274Z,100.00
2023-11-05T18:27:56.209Z,100.00
2023-11-05T18:34:00.294Z,100.00
2023-11-05T18:40:03.110Z,100.00
2023-11-05T18:46:05.478Z,100.00
2023-11-05T18:52:07.443Z,100.00
2023-11-05T18:58:10.504Z,100.00
2023-11-05T19:04:13.866Z,100.00
2023-11-05T19:10:15.893Z,100.00
2023-11-05T19:16:17.843Z,100.00
2023-11-05T19:22:21.188Z,100.00
2023-11-05T19:28:23.147Z,100.00
2023-11-05T19:34:25.172Z,100.00
2023-11-05T19:40:27.261Z,100.00
2023-11-05T19:46:29.335Z,100.00
2023-11-05T19:52:31.463Z,98.81
2023-11-05T19:58:36.232Z,94.96
2023-11-05T20:04:38.783Z,93.18
2023-11-05T20:10:40.850Z,92.01
2023-11-05T20:16:45.666Z,89.98
2023-11-05T20:22:47.742Z,87.97
2023-11-05T20:28:51.670Z,86.90
2023-11-05T20:34:55.492Z,86.32
2023-11-05T20:40:57.662Z,85.46
2023-11-05T20:46:59.889Z,85.63
2023-11-05T20:53:01.944Z,85.10
2023-11-05T20:59:04.445Z,83.51
2023-11-05T21:05:08.433Z,83.52
2023-11-05T21:11:10.630Z,83.14
2023-11-05T21:17:13.265Z,83.92
2023-11-05T21:23:15.272Z,84.62
2023-11-05T21:29:18.247Z,84.37
2023-11-05T21:35:20.705Z,84.53
2023-11-05T21:41:23.576Z,84.12
2023-11-05T21:47:25.713Z,83.80
2023-11-05T21:53:27.665Z,83.62
2023-11-05T21:59:29.592Z,84.26
2023-11-05T22:05:31.978Z,84.07
2023-11-05T22:11:33.954Z,84.13
2023-11-05T22:17:35.958Z,84.99
2023-11-05T22:23:39.191Z,85.41
2023-11-05T22:29:41.112Z,84.84
2023-11-05T22:35:43.428Z,83.86
2023-11-05T22:41:46.615Z,82.22
2023-11-05T22:47:48.579Z,83.35
2023-11-05T22:53:50.686Z,83.21
2023-11-05T22:59:52.676Z,81.69
2023-11-05T23:05:56.149Z,81.27
2023-11-05T23:11:58.426Z,81.01
2023-11-05T23:18:01.144Z,80.83
2023-11-05T23:24:03.319Z,80.68
2023-11-05T23:30:08.875Z,81.50
2023-11-05T23:36:11.283Z,81.26
2023-11-05T23:42:13.561Z,82.10
2023-11-05T23:48:15.623Z,84.35
2023-11-05T23:54:17.826Z,85.84
